createdAt,value
2023-05-24T00:00:47.549Z,44.68
2023-05-24T00:01:47.068Z,44.63
2023-05-24T00:02:47.140Z,44.65
2023-05-24T00:03:47.220Z,44.67
2023-05-24T00:04:47.073Z,44.64
2023-05-24T00:05:47.072Z,44.71
2023-05-24T00:06:47.032Z,44.69
2023-05-24T00:07:47.075Z,44.70
2023-05-24T00:08:47.021Z,44.70
2023-05-24T00:09:47.013Z,44.69
2023-05-24T00:10:47.013Z,44.70
2023-05-24T00:11:47.007Z,44.73
2023-05-24T00:12:47.000Z,44.66
2023-05-24T00:13:46.984Z,44.69
2023-05-24T00:14:46.963Z,44.69
2023-05-24T00:15:46.963Z,44.70
2023-05-24T00:16:47.021Z,44.74
2023-05-24T00:17:47.020Z,44.73
2023-05-24T00:18:47.064Z,44.70
2023-05-24T00:19:46.940Z,44.72
2023-05-24T00:20:47.208Z,44.67
2023-05-24T00:21:46.920Z,44.71
2023-05-24T00:22:46.921Z,44.73
2023-05-24T00:23:46.916Z,44.73
2023-05-24T00:24:46.892Z,44.77
2023-05-24T00:25:46.895Z,44.75
2023-05-24T00:26:46.879Z,44.72
2023-05-24T00:27:46.898Z,44.80
2023-05-24T00:28:46.865Z,44.78
2023-05-24T00:29:46.893Z,44.79
2023-05-24T00:30:46.872Z,44.77
2023-05-24T00:31:46.903Z,44.78
2023-05-24T00:34:06.086Z,45.02
2023-05-24T00:35:05.915Z,44.92
2023-05-24T00:36:06.091Z,44.91
2023-05-24T00:37:06.046Z,44.88
2023-05-24T00:38:05.897Z,44.85
2023-05-24T00:39:05.859Z,44.90
2023-05-24T00:40:05.915Z,44.88
2023-05-24T00:41:06.216Z,44.93
2023-05-24T00:42:05.966Z,44.92
2023-05-24T00:43:05.861Z,44.91
2023-05-24T00:44:05.829Z,44.94
2023-05-24T00:45:05.841Z,44.97
2023-05-24T00:46:06.121Z,44.99
2023-05-24T00:47:05.832Z,44.92
2023-05-24T00:48:05.872Z,44.97
2023-05-24T00:49:05.797Z,44.97
2023-05-24T00:50:05.795Z,45.03
2023-05-24T00:51:06.088Z,44.97
2023-05-24T00:52:05.784Z,45.07
2023-05-24T00:53:05.788Z,44.98
2023-05-24T00:54:05.764Z,44.97
2023-05-24T00:55:05.783Z,45.00
2023-05-24T00:56:06.108Z,45.03
2023-05-24T00:57:05.751Z,44.97
2023-05-24T00:58:05.739Z,44.97
2023-05-24T00:59:05.770Z,45.00
2023-05-24T01:00:05.746Z,44.96
2023-05-24T01:01:06.135Z,44.95
2023-05-24T01:02:05.724Z,45.00
2023-05-24T01:03:05.841Z,44.98
2023-05-24T01:04:05.741Z,45.08
2023-05-24T01:05:05.716Z,45.04
2023-05-24T01:06:05.687Z,45.04
2023-05-24T01:07:05.680Z,45.11
2023-05-24T01:08:05.671Z,45.03
2023-05-24T01:09:05.659Z,45.05
2023-05-24T01:10:05.713Z,45.11
2023-05-24T01:11:05.653Z,45.10
2023-05-24T01:12:05.637Z,45.04
2023-05-24T01:13:05.650Z,44.95
2023-05-24T01:14:05.632Z,44.94
2023-05-24T01:15:05.630Z,45.07
2023-05-24T01:16:05.691Z,45.06
2023-05-24T01:17:05.618Z,45.12
2023-05-24T01:18:05.689Z,45.02
2023-05-24T01:19:05.593Z,45.04
2023-05-24T01:20:05.619Z,45.05
2023-05-24T01:21:05.608Z,45.06
2023-05-24T01:22:05.597Z,45.09
2023-05-24T01:23:05.568Z,45.06
2023-05-24T01:24:05.569Z,45.05
2023-05-24T01:25:05.564Z,45.08
2023-05-24T01:26:05.556Z,45.03
2023-05-24T01:27:05.532Z,45.11
2023-05-24T01:28:05.539Z,45.04
2023-05-24T01:29:05.534Z,45.11
2023-05-24T01:30:05.528Z,45.09
2023-05-24T01:31:05.558Z,45.07
2023-05-24T01:32:05.506Z,45.08
2023-05-24T01:33:05.548Z,45.09
2023-05-24T01:34:05.490Z,45.06
2023-05-24T01:35:05.484Z,45.10
2023-05-24T01:36:05.485Z,45.11
2023-05-24T01:37:05.467Z,45.08
2023-05-24T01:38:05.504Z,45.12
2023-05-24T01:39:05.572Z,45.17
2023-05-24T01:40:05.579Z,45.14
2023-05-24T01:41:05.627Z,45.12
2023-05-24T01:42:05.677Z,45.06
2023-05-24T01:43:05.691Z,45.06
2023-05-24T01:44:05.714Z,45.09
2023-05-24T01:45:05.732Z,45.17
2023-05-24T01:46:05.730Z,45.17
2023-05-24T01:47:05.732Z,45.14
2023-05-24T01:48:05.782Z,45.15
2023-05-24T01:49:05.739Z,45.18
2023-05-24T01:50:05.736Z,45.17
2023-05-24T01:51:05.774Z,45.14
2023-05-24T01:52:05.842Z,45.17
2023-05-24T01:53:05.777Z,45.16
2023-05-24T01:54:05.794Z,45.19
2023-05-24T01:55:05.779Z,45.09
2023-05-24T01:56:05.783Z,45.13
2023-05-24T01:57:05.774Z,45.15
2023-05-24T01:58:05.789Z,45.20
2023-05-24T01:59:05.793Z,45.20
2023-05-24T02:00:05.776Z,45.25
2023-05-24T02:01:05.860Z,45.24
2023-05-24T02:02:05.767Z,45.22
2023-05-24T02:03:05.999Z,45.18
2023-05-24T02:04:05.788Z,45.24
2023-05-24T02:05:05.776Z,45.20
2023-05-24T02:06:05.771Z,45.22
2023-05-24T02:07:05.775Z,45.18
2023-05-24T02:08:05.910Z,45.16
2023-05-24T02:09:05.773Z,45.21
2023-05-24T02:10:05.764Z,45.15
2023-05-24T02:11:05.793Z,45.12
2023-05-24T02:12:05.784Z,45.14
2023-05-24T02:13:05.805Z,45.01
2023-05-24T02:14:05.802Z,45.07
2023-05-24T02:15:05.858Z,45.04
2023-05-24T02:16:05.894Z,45.06
2023-05-24T02:17:05.978Z,45.05
2023-05-24T02:18:06.123Z,45.05
2023-05-24T02:19:06.010Z,45.01
2023-05-24T02:20:06.282Z,45.02
2023-05-24T02:21:06.079Z,44.97
2023-05-24T02:22:06.133Z,44.93
2023-05-24T02:23:06.113Z,44.94
2023-05-24T02:24:06.127Z,44.92
2023-05-24T02:25:06.136Z,44.91
2023-05-24T02:26:06.126Z,44.85
2023-05-24T02:27:06.130Z,44.81
2023-05-24T02:28:06.136Z,44.82
2023-05-24T02:29:06.175Z,44.79
2023-05-24T02:30:06.152Z,44.78
2023-05-24T02:31:06.216Z,44.77
2023-05-24T02:32:06.209Z,44.76
2023-05-24T02:33:06.327Z,44.76
2023-05-24T02:34:06.248Z,44.71
2023-05-24T02:35:06.268Z,44.71
2023-05-24T02:36:06.248Z,44.71
2023-05-24T02:37:06.258Z,44.66
2023-05-24T02:38:06.249Z,44.64
2023-05-24T02:39:06.247Z,44.60
2023-05-24T02:40:06.263Z,44.61
2023-05-24T02:41:06.237Z,44.61
2023-05-24T02:42:06.258Z,44.59
2023-05-24T02:43:06.242Z,44.56
2023-05-24T02:44:06.284Z,44.55
2023-05-24T02:45:06.335Z,44.54
2023-05-24T02:46:06.399Z,44.57
2023-05-24T02:47:06.423Z,44.54
2023-05-24T02:48:06.646Z,44.56
2023-05-24T02:49:06.462Z,44.56
2023-05-24T02:50:06.482Z,44.53
2023-05-24T02:51:06.482Z,44.53
2023-05-24T02:52:06.470Z,44.51
2023-05-24T02:53:06.459Z,44.53
2023-05-24T02:54:06.468Z,44.50
2023-05-24T02:55:06.455Z,44.50
2023-05-24T02:56:06.463Z,44.46
2023-05-24T02:57:06.513Z,44.48
2023-05-24T02:58:06.497Z,44.49
2023-05-24T02:59:06.538Z,44.50
2023-05-24T03:00:06.569Z,44.51
2023-05-24T03:01:07.155Z,44.50
2023-05-24T03:02:06.769Z,44.50
2023-05-24T03:03:06.708Z,44.45
2023-05-24T03:04:06.937Z,44.48
2023-05-24T03:05:06.767Z,44.46
2023-05-24T03:06:06.821Z,44.46
2023-05-24T03:07:06.863Z,44.45
2023-05-24T03:08:06.927Z,44.45
2023-05-24T03:09:06.955Z,44.48
2023-05-24T03:10:07.012Z,44.50
2023-05-24T03:11:07.056Z,44.44
2023-05-24T03:12:07.152Z,44.48
2023-05-24T03:13:07.142Z,44.45
2023-05-24T03:14:07.110Z,44.45
2023-05-24T03:15:07.143Z,44.48
2023-05-24T03:16:07.302Z,44.48
2023-05-24T03:17:07.247Z,44.48
2023-05-24T03:18:07.359Z,44.50
2023-05-24T03:19:09.903Z,44.49
2023-05-24T03:20:07.422Z,44.47
2023-05-24T03:21:07.707Z,44.42
2023-05-24T03:22:07.322Z,44.47
2023-05-24T03:23:07.329Z,44.45
2023-05-24T03:24:07.312Z,44.46
2023-05-24T03:25:07.295Z,44.47
2023-05-24T03:26:07.316Z,44.47
2023-05-24T03:27:07.285Z,44.49
2023-05-24T03:28:07.276Z,44.48
2023-05-24T03:29:07.279Z,44.48
2023-05-24T03:30:07.284Z,44.46
2023-05-24T03:31:07.254Z,44.47
2023-05-24T03:32:07.278Z,44.49
2023-05-24T03:33:07.249Z,44.47
2023-05-24T03:34:07.234Z,44.49
2023-05-24T03:35:07.235Z,44.48
2023-05-24T03:36:07.241Z,44.48
2023-05-24T03:37:07.226Z,44.50
2023-05-24T03:38:07.218Z,44.50
2023-05-24T03:39:07.207Z,44.46
2023-05-24T03:40:07.210Z,44.51
2023-05-24T03:41:07.189Z,44.48
2023-05-24T03:42:07.221Z,44.49
2023-05-24T03:43:07.181Z,44.52
2023-05-24T03:44:07.177Z,44.52
2023-05-24T03:45:07.188Z,44.52
2023-05-24T03:46:07.200Z,44.53
2023-05-24T03:47:07.155Z,44.49
2023-05-24T03:48:07.147Z,44.51
2023-05-24T03:49:07.235Z,44.49
2023-05-24T03:50:07.140Z,44.53
2023-05-24T03:51:07.151Z,44.51
2023-05-24T03:52:07.184Z,44.53
2023-05-24T03:53:07.113Z,44.50
2023-05-24T03:54:07.126Z,44.52
2023-05-24T03:55:07.093Z,44.49
2023-05-24T03:56:07.102Z,44.54
2023-05-24T03:57:07.086Z,44.53
2023-05-24T03:58:07.064Z,44.50
2023-05-24T03:59:07.073Z,44.52
2023-05-24T04:00:07.078Z,44.48
2023-05-24T04:01:07.062Z,44.50
2023-05-24T04:02:07.062Z,44.50
2023-05-24T04:03:07.157Z,44.53
2023-05-24T04:04:07.100Z,44.54
2023-05-24T04:05:07.020Z,44.56
2023-05-24T04:06:07.039Z,44.54
2023-05-24T04:07:07.028Z,44.50
2023-05-24T04:08:06.994Z,44.46
2023-05-24T04:09:07.015Z,44.56
2023-05-24T04:10:07.025Z,44.49
2023-05-24T04:11:06.977Z,44.58
2023-05-24T04:12:06.989Z,44.50
2023-05-24T04:13:06.975Z,44.50
2023-05-24T04:14:07.094Z,44.52
2023-05-24T04:15:07.039Z,44.56
2023-05-24T04:16:07.098Z,44.58
2023-05-24T04:17:07.203Z,44.51
2023-05-24T04:18:07.275Z,44.59
2023-05-24T04:19:07.248Z,44.55
2023-05-24T04:20:07.276Z,44.51
2023-05-24T04:21:07.270Z,44.54
2023-05-24T04:22:07.296Z,44.56
2023-05-24T04:23:07.244Z,44.50
2023-05-24T04:24:07.325Z,44.48
2023-05-24T04:25:07.344Z,44.51
2023-05-24T04:26:07.371Z,44.53
2023-05-24T04:27:07.434Z,44.48
2023-05-24T04:28:07.470Z,44.49
2023-05-24T04:29:07.524Z,44.53
2023-05-24T04:30:07.545Z,44.53
2023-05-24T04:31:07.691Z,44.56
2023-05-24T04:32:07.663Z,44.51
2023-05-24T04:33:07.764Z,44.54
2023-05-24T04:34:07.869Z,44.54
2023-05-24T04:35:07.799Z,44.53
2023-05-24T04:36:07.838Z,44.48
2023-05-24T04:37:07.895Z,44.56
2023-05-24T04:38:07.951Z,44.61
2023-05-24T04:39:07.989Z,44.58
2023-05-24T04:40:08.044Z,44.53
2023-05-24T04:41:08.089Z,44.51
2023-05-24T04:42:08.141Z,44.50
2023-05-24T04:43:08.168Z,44.42
2023-05-24T04:44:08.186Z,44.44
2023-05-24T04:45:08.188Z,44.42
2023-05-24T04:46:09.440Z,44.41
2023-05-24T04:47:08.284Z,44.42
2023-05-24T04:48:08.258Z,44.38
2023-05-24T04:49:08.196Z,44.33
2023-05-24T04:50:08.220Z,44.32
2023-05-24T04:51:08.263Z,44.33
2023-05-24T04:52:08.313Z,44.30
2023-05-24T04:53:08.350Z,44.36
2023-05-24T04:54:08.405Z,44.32
2023-05-24T04:55:08.465Z,44.30
2023-05-24T04:56:08.517Z,44.26
2023-05-24T04:57:08.554Z,44.27
2023-05-24T04:58:10.209Z,44.24
2023-05-24T04:59:08.607Z,44.24
2023-05-24T05:00:08.611Z,44.23
2023-05-24T05:01:08.604Z,44.22
2023-05-24T05:02:08.736Z,44.18
2023-05-24T05:03:08.748Z,44.15
2023-05-24T05:04:08.794Z,44.20
2023-05-24T05:05:08.609Z,44.20
2023-05-24T05:06:08.635Z,44.22
2023-05-24T05:07:08.622Z,44.15
2023-05-24T05:08:08.682Z,44.13
2023-05-24T05:09:08.695Z,44.15
2023-05-24T05:10:08.737Z,44.16
2023-05-24T05:11:08.782Z,44.15
2023-05-24T05:12:08.828Z,44.18
2023-05-24T05:13:08.876Z,44.17
2023-05-24T05:14:08.934Z,44.18
2023-05-24T05:15:08.936Z,44.19
2023-05-24T05:16:08.964Z,44.14
2023-05-24T05:17:08.934Z,44.12
2023-05-24T05:18:09.017Z,44.18
2023-05-24T05:19:09.054Z,44.14
2023-05-24T05:20:09.236Z,44.17
2023-05-24T05:21:09.196Z,44.16
2023-05-24T05:22:09.115Z,44.19
2023-05-24T05:23:09.294Z,44.14
2023-05-24T05:24:09.131Z,44.19
2023-05-24T05:25:09.161Z,44.20
2023-05-24T05:26:09.299Z,44.22
2023-05-24T05:27:09.145Z,44.21
2023-05-24T05:28:09.164Z,44.47
2023-05-24T05:29:09.181Z,44.73
2023-05-24T05:30:09.281Z,44.90
2023-05-24T05:31:09.707Z,45.10
2023-05-24T05:32:09.317Z,44.93
2023-05-24T05:33:09.477Z,45.68
2023-05-24T05:34:09.333Z,45.79
2023-05-24T05:35:09.557Z,45.47
2023-05-24T05:36:09.401Z,45.64
2023-05-24T05:37:09.417Z,45.62
2023-05-24T05:38:09.505Z,45.88
2023-05-24T05:39:09.576Z,46.00
2023-05-24T05:40:09.636Z,45.93
2023-05-24T05:41:09.626Z,46.08
2023-05-24T05:42:09.625Z,46.08
2023-05-24T05:43:09.648Z,46.11
2023-05-24T05:44:09.641Z,46.19
2023-05-24T05:45:09.610Z,46.27
2023-05-24T05:46:09.654Z,46.34
2023-05-24T05:47:09.689Z,46.32
2023-05-24T05:48:09.704Z,46.30
2023-05-24T05:49:09.642Z,46.34
2023-05-24T05:50:09.685Z,46.29
2023-05-24T05:51:09.659Z,46.71
2023-05-24T05:52:09.749Z,46.54
2023-05-24T05:53:09.682Z,46.43
2023-05-24T05:54:09.690Z,46.48
2023-05-24T05:55:09.729Z,46.43
2023-05-24T05:56:09.720Z,46.39
2023-05-24T05:57:09.718Z,46.35
2023-05-24T05:58:09.718Z,46.54
2023-05-24T05:59:09.727Z,46.49
2023-05-24T06:00:09.754Z,46.59
2023-05-24T06:01:09.757Z,46.49
2023-05-24T06:02:09.811Z,46.55
2023-05-24T06:03:09.904Z,46.45
2023-05-24T06:04:09.835Z,46.44
2023-05-24T06:05:09.803Z,46.40
2023-05-24T06:06:09.805Z,46.46
2023-05-24T06:07:09.814Z,46.37
2023-05-24T06:08:09.820Z,46.20
2023-05-24T06:09:09.809Z,46.22
2023-05-24T06:10:09.822Z,46.28
2023-05-24T06:11:10.223Z,46.24
2023-05-24T06:12:09.890Z,46.25
2023-05-24T06:13:09.918Z,46.25
2023-05-24T06:14:09.848Z,46.23
2023-05-24T06:15:09.880Z,46.28
2023-05-24T06:16:10.013Z,46.42
2023-05-24T06:17:09.940Z,46.41
2023-05-24T06:18:09.967Z,46.32
2023-05-24T06:19:09.970Z,46.51
2023-05-24T06:20:10.027Z,46.41
2023-05-24T06:21:09.988Z,46.31
2023-05-24T06:22:09.979Z,46.27
2023-05-24T06:23:10.011Z,46.30
2023-05-24T06:24:10.000Z,46.32
2023-05-24T06:25:10.020Z,46.43
2023-05-24T06:26:10.029Z,46.36
2023-05-24T06:27:10.058Z,46.19
2023-05-24T06:28:10.062Z,45.91
2023-05-24T06:29:10.085Z,46.10
2023-05-24T06:30:10.116Z,46.23
2023-05-24T06:31:10.250Z,46.18
2023-05-24T06:32:10.095Z,46.29
2023-05-24T06:33:10.164Z,46.25
2023-05-24T06:34:10.222Z,45.60
2023-05-24T06:35:10.228Z,45.80
2023-05-24T06:36:10.782Z,45.87
2023-05-24T06:37:10.494Z,45.90
2023-05-24T06:38:10.266Z,45.99
2023-05-24T06:39:10.259Z,45.98
2023-05-24T06:40:10.298Z,46.02
2023-05-24T06:41:10.317Z,45.99
2023-05-24T06:42:10.357Z,46.01
2023-05-24T06:43:10.450Z,46.06
2023-05-24T06:44:10.482Z,46.08
2023-05-24T06:45:10.496Z,46.10
2023-05-24T06:46:10.750Z,46.15
2023-05-24T06:47:10.607Z,46.15
2023-05-24T06:48:10.744Z,46.23
2023-05-24T06:49:10.688Z,46.30
2023-05-24T06:50:10.662Z,46.27
2023-05-24T06:51:10.780Z,46.47
2023-05-24T06:52:10.778Z,46.35
2023-05-24T06:53:10.754Z,46.42
2023-05-24T06:54:10.740Z,46.03
2023-05-24T06:55:10.800Z,46.13
2023-05-24T06:56:11.285Z,46.18
2023-05-24T06:57:10.835Z,46.23
2023-05-24T06:58:10.879Z,46.17
2023-05-24T06:59:10.851Z,45.90
2023-05-24T07:00:10.853Z,46.04
2023-05-24T07:01:11.289Z,46.14
2023-05-24T07:02:10.861Z,46.09
2023-05-24T07:03:10.931Z,46.13
2023-05-24T07:04:11.056Z,45.90
2023-05-24T07:05:10.923Z,45.95
2023-05-24T07:06:10.962Z,45.95
2023-05-24T07:07:10.980Z,46.14
2023-05-24T07:08:11.048Z,46.03
2023-05-24T07:09:11.115Z,46.03
2023-05-24T07:10:11.133Z,46.09
2023-05-24T07:11:11.376Z,46.06
2023-05-24T07:12:11.252Z,46.12
2023-05-24T07:13:11.264Z,46.15
2023-05-24T07:14:11.338Z,46.13
2023-05-24T07:15:11.391Z,46.09
2023-05-24T07:16:11.750Z,46.12
2023-05-24T07:17:11.582Z,46.11
2023-05-24T07:18:11.505Z,46.11
2023-05-24T07:19:11.536Z,46.11
2023-05-24T07:20:11.670Z,46.03
2023-05-24T07:21:11.582Z,45.96
2023-05-24T07:22:11.768Z,45.97
2023-05-24T07:23:11.644Z,45.95
2023-05-24T07:24:13.073Z,45.97
2023-05-24T07:25:11.666Z,46.03
2023-05-24T07:26:11.756Z,45.34
2023-05-24T07:27:11.659Z,45.85
2023-05-24T07:28:11.659Z,45.26
2023-05-24T07:29:11.668Z,45.16
2023-05-24T07:30:23.644Z,45.06
2023-05-24T07:31:12.763Z,45.27
2023-05-24T07:32:11.703Z,45.30
2023-05-24T07:33:11.675Z,45.48
2023-05-24T07:34:11.606Z,45.52
2023-05-24T07:35:11.582Z,46.08
2023-05-24T07:36:11.584Z,46.01
2023-05-24T07:37:11.850Z,46.16
2023-05-24T07:38:11.585Z,46.20
2023-05-24T07:39:11.598Z,46.19
2023-05-24T07:40:11.576Z,46.08
2023-05-24T07:41:11.641Z,46.01
2023-05-24T07:42:11.677Z,45.92
2023-05-24T07:43:11.691Z,45.88
2023-05-24T07:44:11.682Z,45.84
2023-05-24T07:45:11.685Z,45.84
2023-05-24T07:46:11.758Z,45.64
2023-05-24T07:47:11.682Z,45.72
2023-05-24T07:48:11.758Z,45.76
2023-05-24T07:49:11.685Z,45.74
2023-05-24T07:50:11.678Z,45.73
2023-05-24T07:51:11.846Z,45.57
2023-05-24T07:52:11.748Z,45.61
2023-05-24T07:53:11.782Z,45.67
2023-05-24T07:54:11.806Z,45.72
2023-05-24T07:55:11.870Z,45.72
2023-05-24T07:56:11.933Z,45.67
2023-05-24T07:57:11.980Z,45.69
2023-05-24T07:58:12.076Z,45.70
2023-05-24T07:59:12.119Z,45.63
2023-05-24T08:00:12.179Z,45.30
2023-05-24T08:01:12.247Z,45.46
2023-05-24T08:02:12.281Z,45.51
2023-05-24T08:03:12.412Z,45.49
2023-05-24T08:04:12.422Z,45.49
2023-05-24T08:05:12.476Z,45.45
2023-05-24T08:06:12.476Z,45.44
2023-05-24T08:07:12.592Z,45.55
2023-05-24T08:08:12.537Z,45.59
2023-05-24T08:09:12.578Z,45.66
2023-05-24T08:10:12.723Z,45.67
2023-05-24T08:11:12.769Z,45.65
2023-05-24T08:12:13.866Z,45.73
2023-05-24T08:13:12.702Z,45.68
2023-05-24T08:14:12.696Z,45.66
2023-05-24T08:15:12.664Z,45.61
2023-05-24T08:16:12.690Z,45.62
2023-05-24T08:17:12.641Z,45.58
2023-05-24T08:18:12.696Z,45.62
2023-05-24T08:19:12.638Z,45.53
2023-05-24T08:20:12.746Z,45.51
2023-05-24T08:21:12.775Z,45.63
2023-05-24T08:22:12.637Z,45.51
2023-05-24T08:23:12.709Z,45.46
2023-05-24T08:24:12.629Z,45.49
2023-05-24T08:25:12.608Z,45.37
2023-05-24T08:26:12.594Z,45.21
2023-05-24T08:27:12.595Z,45.10
2023-05-24T08:28:12.589Z,45.01
2023-05-24T08:29:12.574Z,44.89
2023-05-24T08:30:12.575Z,45.43
2023-05-24T08:31:12.587Z,45.26
2023-05-24T08:32:12.708Z,45.02
2023-05-24T08:33:12.595Z,45.05
2023-05-24T08:34:12.543Z,45.44
2023-05-24T08:35:20.913Z,45.39
2023-05-24T08:36:13.540Z,45.41
2023-05-24T08:37:14.854Z,45.75
2023-05-24T08:38:12.508Z,45.75
2023-05-24T08:39:12.520Z,45.34
2023-05-24T08:40:12.519Z,44.94
2023-05-24T08:41:12.789Z,44.82
2023-05-24T08:42:12.531Z,44.55
2023-05-24T08:43:12.495Z,44.38
2023-05-24T08:44:12.465Z,44.11
2023-05-24T08:45:12.797Z,44.15
2023-05-24T08:46:12.588Z,44.12
2023-05-24T08:47:12.481Z,44.08
2023-05-24T08:48:12.519Z,44.11
2023-05-24T08:49:12.433Z,44.11
2023-05-24T08:50:12.457Z,44.04
2023-05-24T08:51:12.450Z,43.99
2023-05-24T08:52:12.445Z,44.08
2023-05-24T08:53:12.432Z,44.04
2023-05-24T08:54:12.405Z,44.04
2023-05-24T08:55:12.400Z,44.04
2023-05-24T08:56:12.398Z,44.05
2023-05-24T08:57:12.381Z,44.05
2023-05-24T08:58:12.389Z,44.00
2023-05-24T08:59:12.394Z,44.01
2023-05-24T09:00:12.390Z,43.99
2023-05-24T09:01:12.397Z,43.96
2023-05-24T09:02:12.400Z,43.95
2023-05-24T09:03:12.413Z,43.99
2023-05-24T09:04:12.389Z,43.96
2023-05-24T09:05:12.378Z,43.97
2023-05-24T09:06:12.343Z,43.94
2023-05-24T09:07:12.340Z,43.89
2023-05-24T09:08:12.312Z,43.85
2023-05-24T09:09:12.298Z,43.78
2023-05-24T09:10:12.295Z,43.83
2023-05-24T09:11:12.305Z,43.89
2023-05-24T09:12:15.017Z,43.84
2023-05-24T09:13:13.295Z,43.88
2023-05-24T09:14:12.266Z,43.82
2023-05-24T09:15:12.267Z,43.75
2023-05-24T09:16:12.393Z,43.70
2023-05-24T09:17:12.266Z,43.72
2023-05-24T09:18:12.266Z,43.68
2023-05-24T09:19:12.262Z,43.63
2023-05-24T09:20:12.261Z,43.61
2023-05-24T09:21:12.311Z,43.56
2023-05-24T09:22:12.228Z,43.55
2023-05-24T09:23:12.228Z,43.56
2023-05-24T09:24:12.250Z,43.50
2023-05-24T09:25:12.294Z,43.46
2023-05-24T09:26:12.791Z,43.42
2023-05-24T09:27:12.385Z,43.58
2023-05-24T09:28:12.387Z,43.81
2023-05-24T09:29:12.395Z,44.14
2023-05-24T09:30:12.556Z,44.17
2023-05-24T09:31:12.880Z,44.59
2023-05-24T09:32:12.824Z,44.73
2023-05-24T09:33:12.626Z,44.56
2023-05-24T09:34:12.528Z,44.79
2023-05-24T09:35:12.502Z,44.81
2023-05-24T09:36:12.557Z,44.94
2023-05-24T09:37:12.599Z,44.99
2023-05-24T09:38:12.647Z,44.97
2023-05-24T09:39:12.728Z,45.02
2023-05-24T09:40:12.766Z,45.05
2023-05-24T09:41:12.796Z,45.27
2023-05-24T09:42:12.843Z,45.16
2023-05-24T09:43:12.848Z,45.15
2023-05-24T09:44:12.898Z,45.30
2023-05-24T09:45:12.932Z,45.42
2023-05-24T09:46:12.933Z,45.35
2023-05-24T09:47:13.364Z,45.40
2023-05-24T09:48:13.053Z,45.25
2023-05-24T09:49:13.004Z,45.38
2023-05-24T09:50:13.007Z,45.38
2023-05-24T09:51:13.042Z,45.45
2023-05-24T09:52:13.030Z,45.44
2023-05-24T09:53:13.101Z,45.33
2023-05-24T09:54:13.047Z,45.29
2023-05-24T09:55:13.075Z,45.26
2023-05-24T09:56:13.103Z,45.39
2023-05-24T09:57:13.138Z,45.50
2023-05-24T09:58:13.178Z,45.40
2023-05-24T09:59:13.181Z,45.52
2023-05-24T10:00:13.197Z,45.64
2023-05-24T10:01:13.216Z,45.49
2023-05-24T10:02:13.267Z,45.30
2023-05-24T10:03:14.014Z,45.53
2023-05-24T10:04:13.521Z,45.76
2023-05-24T10:05:13.371Z,45.41
2023-05-24T10:06:13.423Z,45.55
2023-05-24T10:07:13.461Z,45.51
2023-05-24T10:08:13.605Z,45.58
2023-05-24T10:09:13.556Z,45.47
2023-05-24T10:10:13.571Z,45.39
2023-05-24T10:11:13.599Z,45.35
2023-05-24T10:12:13.644Z,45.31
2023-05-24T10:13:13.673Z,45.35
2023-05-24T10:14:13.706Z,45.45
2023-05-24T10:15:13.725Z,45.38
2023-05-24T10:16:13.782Z,45.35
2023-05-24T10:17:13.825Z,45.45
2023-05-24T10:18:14.521Z,45.34
2023-05-24T10:19:13.841Z,45.38
2023-05-24T10:20:13.953Z,45.36
2023-05-24T10:21:13.933Z,45.33
2023-05-24T10:22:13.930Z,45.61
2023-05-24T10:23:14.311Z,45.40
2023-05-24T10:24:13.946Z,45.29
2023-05-24T10:25:13.937Z,45.36
2023-05-24T10:26:14.001Z,45.22
2023-05-24T10:27:14.106Z,45.34
2023-05-24T10:28:14.111Z,45.42
2023-05-24T10:29:14.079Z,45.39
2023-05-24T10:30:14.385Z,45.45
2023-05-24T10:31:14.168Z,45.20
2023-05-24T10:32:14.116Z,44.90
2023-05-24T10:33:14.200Z,44.83
2023-05-24T10:34:14.150Z,45.06
2023-05-24T10:35:14.174Z,45.05
2023-05-24T10:36:14.208Z,45.24
2023-05-24T10:37:14.251Z,44.86
2023-05-24T10:38:14.290Z,45.14
2023-05-24T10:39:14.334Z,45.12
2023-05-24T10:40:14.456Z,45.10
2023-05-24T10:41:14.392Z,45.05
2023-05-24T10:42:14.462Z,44.81
2023-05-24T10:43:14.512Z,44.81
2023-05-24T10:44:14.500Z,44.79
2023-05-24T10:45:14.506Z,44.77
2023-05-24T10:46:14.572Z,44.47
2023-05-24T10:47:14.665Z,44.37
2023-05-24T10:48:14.673Z,44.25
2023-05-24T10:49:14.676Z,44.45
2023-05-24T10:50:14.737Z,44.47
2023-05-24T10:51:14.827Z,44.15
2023-05-24T10:52:14.783Z,44.35
2023-05-24T10:53:14.814Z,44.22
2023-05-24T10:54:14.867Z,44.16
2023-05-24T10:55:14.920Z,43.96
2023-05-24T10:56:14.951Z,44.06
2023-05-24T10:57:15.021Z,44.10
2023-05-24T10:58:15.060Z,44.12
2023-05-24T10:59:15.106Z,44.13
2023-05-24T11:00:17.956Z,43.97
2023-05-24T11:01:16.384Z,43.83
2023-05-24T11:02:15.382Z,43.54
2023-05-24T11:03:15.236Z,43.60
2023-05-24T11:04:15.159Z,43.25
2023-05-24T11:05:15.190Z,43.28
2023-05-24T11:06:15.136Z,42.82
2023-05-24T11:07:15.413Z,43.13
2023-05-24T11:08:15.129Z,43.20
2023-05-24T11:09:15.137Z,43.59
2023-05-24T11:10:15.135Z,44.10
2023-05-24T11:11:25.096Z,43.89
2023-05-24T11:12:16.336Z,43.57
2023-05-24T11:13:15.116Z,43.39
2023-05-24T11:14:15.092Z,43.37
2023-05-24T11:15:15.107Z,43.27
2023-05-24T11:16:15.134Z,43.19
2023-05-24T11:17:15.352Z,43.71
2023-05-24T11:18:15.157Z,43.89
2023-05-24T11:19:15.077Z,44.43
2023-05-24T11:20:15.148Z,44.78
2023-05-24T11:21:15.041Z,45.02
2023-05-24T11:22:15.385Z,45.64
2023-05-24T11:23:15.032Z,45.29
2023-05-24T11:24:15.053Z,44.73
2023-05-24T11:25:15.032Z,45.18
2023-05-24T11:26:15.040Z,45.39
2023-05-24T11:27:15.016Z,45.71
2023-05-24T11:28:15.049Z,45.99
2023-05-24T11:29:15.021Z,45.94
2023-05-24T11:30:15.007Z,46.13
2023-05-24T11:31:15.042Z,46.34
2023-05-24T11:32:15.131Z,46.64
2023-05-24T11:33:15.213Z,46.67
2023-05-24T11:34:15.080Z,46.63
2023-05-24T11:35:15.133Z,46.67
2023-05-24T11:36:15.086Z,46.59
2023-05-24T11:37:17.191Z,46.73
2023-05-24T11:38:15.134Z,46.60
2023-05-24T11:39:15.173Z,46.39
2023-05-24T11:40:15.170Z,46.23
2023-05-24T11:41:15.140Z,46.06
2023-05-24T11:42:15.120Z,45.96
2023-05-24T11:43:16.536Z,45.80
2023-05-24T11:44:15.108Z,45.61
2023-05-24T11:45:15.136Z,45.49
2023-05-24T11:46:15.133Z,45.37
2023-05-24T11:47:15.087Z,45.27
2023-05-24T11:48:15.139Z,45.20
2023-05-24T11:49:15.074Z,45.09
2023-05-24T11:50:15.083Z,44.96
2023-05-24T11:51:15.073Z,44.86
2023-05-24T11:52:15.057Z,44.74
2023-05-24T11:53:15.079Z,44.66
2023-05-24T11:54:15.027Z,44.57
2023-05-24T11:55:16.713Z,44.43
2023-05-24T11:56:15.119Z,44.39
2023-05-24T11:57:15.116Z,44.39
2023-05-24T11:58:15.152Z,44.31
2023-05-24T11:59:15.248Z,44.25
2023-05-24T12:00:15.282Z,44.22
2023-05-24T12:01:15.344Z,44.16
2023-05-24T12:02:15.455Z,44.18
2023-05-24T12:03:15.533Z,44.03
2023-05-24T12:04:15.577Z,44.03
2023-05-24T12:05:15.550Z,44.07
2023-05-24T12:06:15.601Z,43.69
2023-05-24T12:07:15.920Z,43.96
2023-05-24T12:08:15.745Z,43.78
2023-05-24T12:09:15.751Z,43.45
2023-05-24T12:10:15.788Z,43.49
2023-05-24T12:11:15.821Z,43.54
2023-05-24T12:12:16.386Z,43.24
2023-05-24T12:13:15.963Z,43.68
2023-05-24T12:14:15.974Z,43.28
2023-05-24T12:15:16.044Z,43.50
2023-05-24T12:16:16.097Z,43.30
2023-05-24T12:17:16.359Z,43.44
2023-05-24T12:18:16.145Z,43.45
2023-05-24T12:19:31.610Z,43.34
2023-05-24T12:20:17.163Z,43.39
2023-05-24T12:21:16.120Z,43.28
2023-05-24T12:22:16.089Z,43.31
2023-05-24T12:23:16.082Z,43.20
2023-05-24T12:24:16.078Z,43.31
2023-05-24T12:25:16.060Z,43.25
2023-05-24T12:26:16.065Z,43.13
2023-05-24T12:27:16.059Z,43.11
2023-05-24T12:28:16.028Z,43.19
2023-05-24T12:29:16.047Z,43.12
2023-05-24T12:30:16.051Z,43.11
2023-05-24T12:31:16.337Z,43.00
2023-05-24T12:32:16.039Z,43.19
2023-05-24T12:33:15.997Z,42.93
2023-05-24T12:34:16.003Z,43.06
2023-05-24T12:35:16.013Z,42.93
2023-05-24T12:36:16.093Z,42.90
2023-05-24T12:37:16.138Z,42.92
2023-05-24T12:38:16.225Z,42.85
2023-05-24T12:39:16.250Z,42.87
2023-05-24T12:40:16.427Z,42.78
2023-05-24T12:41:16.413Z,42.84
2023-05-24T12:42:16.431Z,42.72
2023-05-24T12:43:16.474Z,42.81
2023-05-24T12:44:16.512Z,42.74
2023-05-24T12:45:16.574Z,42.66
2023-05-24T12:46:16.661Z,42.74
2023-05-24T12:47:16.840Z,42.65
2023-05-24T12:48:16.776Z,42.64
2023-05-24T12:49:16.804Z,42.64
2023-05-24T12:50:16.870Z,42.61
2023-05-24T12:51:16.953Z,42.47
2023-05-24T12:52:17.835Z,42.55
2023-05-24T12:53:17.075Z,42.59
2023-05-24T12:54:17.102Z,42.54